Time;durP1;ratioP1;P1;durP2;ratioP2;P2;SDS_P1;SDS_P2;PMS_P1;PMS_P2;Temp;Humidity;BMP_temperature;BMP_pressure;BME280_temperature;BME280_humidity;BME280_pressure;Samples;Min_cycle;Max_cycle;Signal;HPM_P1;HPM_P2
2021/11/21 00:00:52;;;;;;;;;;;18.40;72.10;;;;;;5079851;28;19925;-60
2021/11/21 00:03:20;;;;;;;;;;;18.40;72.10;;;;;;5080112;28;19925;-59
2021/11/21 00:05:47;;;;;;;;;;;18.40;72.10;;;;;;5079800;28;19925;-61
2021/11/21 00:08:14;;;;;;;;;;;18.40;72.10;;;;;;5061202;28;19925;-59
2021/11/21 00:10:41;;;;;;;;;;;18.40;72.10;;;;;;5080031;28;19955;-60
2021/11/21 00:13:08;;;;;;;;;;;18.40;72.10;;;;;;5079660;28;19924;-57
2021/11/21 00:15:35;;;;;;;;;;;18.40;72.10;;;;;;5079944;28;19924;-56
2021/11/21 00:18:03;;;;;;;;;;;18.40;72.10;;;;;;5061933;28;19925;-59
2021/11/21 00:20:30;;;;;;;;;;;18.40;72.10;;;;;;5078223;28;19924;-56
2021/11/21 00:22:57;;;;;;;;;;;18.40;72.10;;;;;;5075046;28;20303;-60
2021/11/21 00:25:24;;;;;;;;;;;18.40;72.10;;;;;;5076591;28;19947;-60
2021/11/21 00:27:51;;;;;;;;;;;18.40;72.10;;;;;;5076686;28;20330;-58
2021/11/21 00:30:18;;;;;;;;;;;18.40;72.10;;;;;;5076653;28;19929;-60
2021/11/21 00:32:45;;;;;;;;;;;18.40;72.10;;;;;;5058534;28;19928;-59
2021/11/21 00:35:13;;;;;;;;;;;18.40;72.10;;;;;;5076551;28;19978;-60
2021/11/21 00:37:40;;;;;;;;;;;18.40;72.10;;;;;;5075028;28;20387;-60
2021/11/21 00:40:07;;;;;;;;;;;18.40;72.10;;;;;;5076475;28;19928;-61
2021/11/21 00:42:34;;;;;;;;;;;18.40;72.10;;;;;;5076346;28;19951;-60
2021/11/21 00:45:03;;;;;;;;;;;18.40;72.10;;;;;;5076348;28;19931;-61
2021/11/21 00:47:30;;;;;;;;;;;18.40;72.10;;;;;;5076556;28;19924;-60
2021/11/21 00:49:57;;;;;;;;;;;18.40;72.10;;;;;;5076279;28;20322;-58
2021/11/21 00:52:24;;;;;;;;;;;18.40;72.10;;;;;;5075577;28;20341;-57
2021/11/21 00:57:18;;;;;;;;;;;18.40;72.10;;;;;;5075932;28;19948;-60
2021/11/21 00:59:45;;;;;;;;;;;18.40;72.10;;;;;;5075834;28;19924;-62
2021/11/21 01:02:12;;;;;;;;;;;18.40;72.10;;;;;;5075765;28;19924;-60
2021/11/21 01:04:41;;;;;;;;;;;18.40;72.10;;;;;;5076013;28;20272;-60
2021/11/21 01:07:10;;;;;;;;;;;18.40;72.10;;;;;;5075776;28;19935;-61
2021/11/21 01:09:37;;;;;;;;;;;18.40;72.10;;;;;;5075614;28;19928;-61
2021/11/21 01:12:04;;;;;;;;;;;18.40;72.10;;;;;;5075808;28;20268;-60
2021/11/21 01:14:32;;;;;;;;;;;18.40;72.10;;;;;;5075837;28;20265;-59
2021/11/21 01:16:59;;;;;;;;;;;18.40;72.10;;;;;;5075452;28;19928;-58
2021/11/21 01:19:26;;;;;;;;;;;18.40;72.10;;;;;;5075721;28;19929;-61
2021/11/21 01:21:54;;;;;;;;;;;18.40;72.10;;;;;;5075344;28;19924;-60
2021/11/21 01:24:21;;;;;;;;;;;18.40;72.10;;;;;;5056838;28;19924;-59
2021/11/21 01:26:48;;;;;;;;;;;18.40;72.10;;;;;;5075546;28;19935;-61
2021/11/21 01:29:15;;;;;;;;;;;18.40;72.10;;;;;;5075538;28;20306;-57
2021/11/21 01:31:46;;;;;;;;;;;18.40;72.10;;;;;;5075498;28;19950;-60
2021/11/21 01:34:14;;;;;;;;;;;18.40;72.10;;;;;;5075497;28;20346;-60
2021/11/21 01:36:42;;;;;;;;;;;18.40;72.10;;;;;;5075360;28;19924;-61
2021/11/21 01:39:09;;;;;;;;;;;18.40;72.10;;;;;;5074624;28;19943;-59
2021/11/21 01:41:36;;;;;;;;;;;18.40;72.10;;;;;;5075282;28;19928;-61
2021/11/21 01:44:04;;;;;;;;;;;18.40;72.10;;;;;;5057205;28;19970;-57
2021/11/21 01:46:32;;;;;;;;;;;18.40;72.10;;;;;;5075172;28;19925;-60
2021/11/21 01:48:59;;;;;;;;;;;18.40;72.10;;;;;;5075139;28;20015;-61
2021/11/21 01:51:26;;;;;;;;;;;18.40;72.10;;;;;;5074716;28;19925;-62
2021/11/21 01:53:53;;;;;;;;;;;18.40;72.10;;;;;;5083533;28;19924;-59
2021/11/21 01:56:20;;;;;;;;;;;18.40;72.10;;;;;;5095098;28;19924;-61
2021/11/21 01:58:47;;;;;;;;;;;18.40;72.10;;;;;;5094868;28;20440;-61
2021/11/21 02:01:14;;;;;;;;;;;18.40;72.10;;;;;;5095134;28;19924;-58
2021/11/21 02:03:41;;;;;;;;;;;18.40;72.10;;;;;;5095370;28;19924;-60
2021/11/21 02:06:08;;;;;;;;;;;18.40;72.10;;;;;;5094750;28;19924;-59
2021/11/21 02:08:35;;;;;;;;;;;18.40;72.10;;;;;;5092156;28;20430;-59
2021/11/21 02:11:02;;;;;;;;;;;18.40;72.10;;;;;;5094954;28;19924;-59
2021/11/21 02:13:29;;;;;;;;;;;18.40;72.10;;;;;;5094517;28;20015;-60
2021/11/21 02:15:57;;;;;;;;;;;18.40;72.10;;;;;;5077267;28;19981;-61
2021/11/21 02:18:24;;;;;;;;;;;18.40;72.10;;;;;;5094562;28;19931;-59
2021/11/21 02:20:53;;;;;;;;;;;18.40;72.10;;;;;;5094807;28;19924;-61
2021/11/21 02:23:22;;;;;;;;;;;18.40;72.10;;;;;;5091512;28;20003;-61
2021/11/21 02:25:49;;;;;;;;;;;18.40;72.10;;;;;;5094393;28;19932;-61
2021/11/21 02:28:16;;;;;;;;;;;18.40;72.10;;;;;;5094357;28;19969;-60
2021/11/21 02:30:43;;;;;;;;;;;18.40;72.10;;;;;;5094624;28;19924;-60
2021/11/21 02:33:12;;;;;;;;;;;18.40;72.10;;;;;;5094198;28;19978;-60
2021/11/21 02:35:40;;;;;;;;;;;18.40;72.10;;;;;;5094216;28;19928;-61
2021/11/21 02:38:08;;;;;;;;;;;18.40;72.10;;;;;;5092024;28;19924;-61
2021/11/21 02:40:35;;;;;;;;;;;18.40;72.10;;;;;;5054244;28;19947;-60
2021/11/21 02:43:03;;;;;;;;;;;18.40;72.10;;;;;;5054175;28;19924;-59
2021/11/21 02:45:30;;;;;;;;;;;18.40;72.10;;;;;;5053679;28;19932;-61
2021/11/21 02:47:58;;;;;;;;;;;18.40;72.10;;;;;;5054157;28;20295;-62
2021/11/21 02:50:25;;;;;;;;;;;18.40;72.10;;;;;;5053773;28;19925;-61
2021/11/21 02:52:53;;;;;;;;;;;18.40;72.10;;;;;;5053837;28;19932;-60
2021/11/21 02:55:25;;;;;;;;;;;18.40;72.10;;;;;;5088197;28;19928;-60
2021/11/21 02:57:52;;;;;;;;;;;18.40;72.10;;;;;;5094053;28;19924;-60
2021/11/21 03:00:21;;;;;;;;;;;18.40;72.10;;;;;;5093246;28;20122;-58
2021/11/21 03:02:48;;;;;;;;;;;18.40;72.10;;;;;;5094217;28;19989;-59
2021/11/21 03:05:16;;;;;;;;;;;18.40;72.10;;;;;;5094175;28;20341;-60
2021/11/21 03:07:43;;;;;;;;;;;18.40;72.10;;;;;;5093845;28;19928;-59
2021/11/21 03:10:12;;;;;;;;;;;18.40;72.10;;;;;;5091265;28;19931;-60
2021/11/21 03:12:39;;;;;;;;;;;18.40;72.10;;;;;;5093723;28;20379;-59
2021/11/21 03:15:06;;;;;;;;;;;18.40;72.10;;;;;;5093774;28;20379;-59
2021/11/21 03:17:33;;;;;;;;;;;18.40;72.10;;;;;;5094610;28;19924;-58
2021/11/21 03:20:00;;;;;;;;;;;18.40;72.10;;;;;;5093710;28;19924;-60
2021/11/21 03:22:27;;;;;;;;;;;18.40;72.10;;;;;;5093960;28;19924;-60
2021/11/21 03:24:54;;;;;;;;;;;18.40;72.10;;;;;;5091357;28;19974;-59
2021/11/21 03:27:21;;;;;;;;;;;18.40;72.20;;;;;;5093654;28;19924;-59
2021/11/21 03:29:48;;;;;;;;;;;18.40;72.10;;;;;;5093636;28;19931;-60
2021/11/21 03:32:16;;;;;;;;;;;18.40;72.10;;;;;;5093583;28;19928;-60
2021/11/21 03:34:44;;;;;;;;;;;18.40;72.10;;;;;;5093605;28;20383;-59
2021/11/21 03:37:11;;;;;;;;;;;18.40;72.10;;;;;;5093877;28;19928;-59
2021/11/21 03:39:38;;;;;;;;;;;18.40;72.10;;;;;;5091292;28;20279;-60
2021/11/21 03:42:05;;;;;;;;;;;18.40;72.10;;;;;;5093531;28;19969;-61
2021/11/21 03:44:32;;;;;;;;;;;18.40;72.10;;;;;;5093510;28;19924;-60
2021/11/21 03:47:00;;;;;;;;;;;18.40;72.10;;;;;;5093796;28;19973;-61
2021/11/21 03:49:27;;;;;;;;;;;18.40;72.10;;;;;;5093778;28;19924;-60
2021/11/21 03:51:54;;;;;;;;;;;18.40;72.20;;;;;;5093428;28;19931;-60
2021/11/21 03:54:21;;;;;;;;;;;18.40;72.10;;;;;;5090403;28;19924;-59
2021/11/21 03:56:48;;;;;;;;;;;18.40;72.10;;;;;;5095142;28;19924;-61
2021/11/21 03:59:15;;;;;;;;;;;18.40;72.10;;;;;;5079284;28;20375;-60
2021/11/21 04:01:42;;;;;;;;;;;18.40;72.10;;;;;;5097173;28;19924;-60
2021/11/21 04:04:10;;;;;;;;;;;18.40;72.10;;;;;;5097669;28;19941;-61
2021/11/21 04:06:37;;;;;;;;;;;18.40;72.20;;;;;;5097071;28;19924;-60
2021/11/21 04:09:04;;;;;;;;;;;18.40;72.10;;;;;;5095357;28;19928;-61
2021/11/21 04:11:31;;;;;;;;;;;18.40;72.20;;;;;;5079280;28;20024;-58
2021/11/21 04:13:58;;;;;;;;;;;18.40;72.10;;;;;;5096852;28;19977;-59
2021/11/21 04:16:26;;;;;;;;;;;18.40;72.10;;;;;;5096909;28;19928;-60
2021/11/21 04:18:53;;;;;;;;;;;18.40;72.10;;;;;;5097159;28;20286;-61
2021/11/21 04:21:20;;;;;;;;;;;18.40;72.10;;;;;;5097137;28;19924;-59
2021/11/21 04:23:47;;;;;;;;;;;18.40;72.10;;;;;;5096766;28;19947;-59
2021/11/21 04:26:15;;;;;;;;;;;18.40;72.10;;;;;;5078222;28;19978;-60
2021/11/21 04:28:42;;;;;;;;;;;18.40;72.20;;;;;;5076970;28;19925;-61
2021/11/21 04:31:09;;;;;;;;;;;18.40;72.20;;;;;;5076362;28;19940;-60
2021/11/21 04:33:36;;;;;;;;;;;18.40;72.20;;;;;;5076561;28;20306;-60
2021/11/21 04:36:04;;;;;;;;;;;18.40;72.20;;;;;;5076279;28;20284;-60
2021/11/21 04:38:31;;;;;;;;;;;18.40;72.20;;;;;;5076245;28;19932;-59
2021/11/21 04:40:58;;;;;;;;;;;18.40;72.20;;;;;;5075605;28;19969;-59
2021/11/21 04:43:25;;;;;;;;;;;18.40;72.10;;;;;;5076151;28;19924;-60
2021/11/21 04:45:54;;;;;;;;;;;18.30;72.10;;;;;;5076422;28;19924;-61
2021/11/21 04:48:22;;;;;;;;;;;18.40;72.20;;;;;;5076383;28;19924;-60
2021/11/21 04:50:49;;;;;;;;;;;18.40;72.20;;;;;;5076255;28;20430;-60
2021/11/21 04:53:16;;;;;;;;;;;18.30;72.10;;;;;;5075692;28;19925;-62
2021/11/21 04:55:43;;;;;;;;;;;18.30;72.10;;;;;;5074851;28;20276;-57
2021/11/21 04:58:14;;;;;;;;;;;18.40;72.20;;;;;;5076177;28;19977;-56
2021/11/21 05:00:42;;;;;;;;;;;18.30;72.10;;;;;;5075879;28;19924;-57
2021/11/21 05:03:09;;;;;;;;;;;18.30;72.10;;;;;;5076062;28;20019;-59
2021/11/21 05:05:36;;;;;;;;;;;18.30;72.10;;;;;;5076049;28;20338;-59
2021/11/21 05:08:04;;;;;;;;;;;18.40;72.20;;;;;;5075172;28;19931;-59
2021/11/21 05:10:31;;;;;;;;;;;18.30;72.10;;;;;;5075005;28;19924;-58
2021/11/21 05:12:59;;;;;;;;;;;18.40;72.20;;;;;;5075501;28;19924;-61
2021/11/21 05:15:31;;;;;;;;;;;18.40;72.20;;;;;;5075897;28;20295;-60
2021/11/21 05:17:58;;;;;;;;;;;18.30;72.10;;;;;;5075774;28;19986;-60
2021/11/21 05:20:25;;;;;;;;;;;18.30;72.10;;;;;;5075753;28;19932;-61
2021/11/21 05:22:52;;;;;;;;;;;18.30;72.10;;;;;;5075736;28;19924;-60
2021/11/21 05:25:19;;;;;;;;;;;18.40;72.20;;;;;;5074178;28;19936;-57
2021/11/21 05:27:49;;;;;;;;;;;18.40;72.20;;;;;;5075518;28;19928;-61
2021/11/21 05:30:18;;;;;;;;;;;18.30;72.10;;;;;;5057556;28;19925;-60
2021/11/21 05:32:45;;;;;;;;;;;18.40;72.20;;;;;;5057787;28;20264;-61
2021/11/21 05:35:13;;;;;;;;;;;18.30;72.10;;;;;;5075121;28;20387;-60
2021/11/21 05:37:40;;;;;;;;;;;18.40;72.20;;;;;;5057445;28;19924;-57
2021/11/21 05:40:09;;;;;;;;;;;18.30;72.10;;;;;;5073796;28;19925;-58
2021/11/21 05:42:36;;;;;;;;;;;18.40;72.20;;;;;;5075009;28;19970;-59
2021/11/21 05:45:04;;;;;;;;;;;18.30;72.10;;;;;;5074941;28;19932;-59
2021/11/21 05:47:31;;;;;;;;;;;18.40;72.20;;;;;;5074877;28;19974;-59
2021/11/21 05:49:59;;;;;;;;;;;18.40;72.20;;;;;;5075126;28;19924;-59
2021/11/21 05:52:26;;;;;;;;;;;18.40;72.20;;;;;;5057239;28;19925;-59
2021/11/21 05:54:55;;;;;;;;;;;18.40;72.20;;;;;;5074892;28;19955;-59
2021/11/21 05:57:22;;;;;;;;;;;18.40;72.20;;;;;;5073637;28;19924;-59
2021/11/21 05:59:49;;;;;;;;;;;18.30;72.10;;;;;;5057255;28;19928;-60
2021/11/21 06:02:16;;;;;;;;;;;18.30;72.10;;;;;;5074592;28;19931;-59
2021/11/21 06:04:43;;;;;;;;;;;18.40;72.20;;;;;;5074827;28;19931;-61
2021/11/21 06:07:10;;;;;;;;;;;18.30;72.10;;;;;;5074493;28;20268;-57
2021/11/21 06:09:37;;;;;;;;;;;18.30;72.10;;;;;;5074431;28;19928;-59
2021/11/21 06:12:05;;;;;;;;;;;18.30;72.10;;;;;;5055928;28;20283;-60
2021/11/21 06:14:32;;;;;;;;;;;18.40;72.20;;;;;;5074633;28;19924;-60
2021/11/21 06:16:59;;;;;;;;;;;18.30;72.10;;;;;;5075164;28;19928;-60
2021/11/21 06:19:26;;;;;;;;;;;18.30;72.10;;;;;;5073490;28;19939;-60
2021/11/21 06:21:54;;;;;;;;;;;18.40;72.20;;;;;;5074541;28;19925;-60
2021/11/21 06:24:21;;;;;;;;;;;18.30;72.10;;;;;;5073916;28;20376;-61
2021/11/21 06:26:48;;;;;;;;;;;18.30;72.10;;;;;;5073413;28;19925;-61
2021/11/21 06:29:15;;;;;;;;;;;18.30;72.10;;;;;;5074399;28;19924;-60
2021/11/21 06:31:42;;;;;;;;;;;18.30;72.10;;;;;;5074076;28;19925;-61
2021/11/21 06:34:09;;;;;;;;;;;18.30;72.10;;;;;;5073992;28;19935;-60
2021/11/21 06:36:36;;;;;;;;;;;18.30;72.10;;;;;;5074353;28;19931;-61
2021/11/21 06:39:04;;;;;;;;;;;18.30;72.10;;;;;;5040258;28;19924;-60
2021/11/21 06:41:31;;;;;;;;;;;18.30;72.10;;;;;;5073458;28;19924;-61
2021/11/21 06:43:58;;;;;;;;;;;18.30;72.10;;;;;;5073938;28;20285;-59
2021/11/21 06:46:25;;;;;;;;;;;18.30;72.00;;;;;;5073906;28;19925;-59
2021/11/21 06:48:52;;;;;;;;;;;18.30;72.00;;;;;;5073868;28;20007;-59
2021/11/21 06:51:19;;;;;;;;;;;18.30;72.00;;;;;;5073832;28;20367;-60
2021/11/21 06:53:48;;;;;;;;;;;18.30;72.00;;;;;;5073749;28;20011;-61
2021/11/21 06:56:16;;;;;;;;;;;18.30;72.10;;;;;;5072487;28;19931;-59
2021/11/21 06:58:43;;;;;;;;;;;18.30;72.00;;;;;;5056382;28;19924;-60
2021/11/21 07:01:10;;;;;;;;;;;18.40;72.10;;;;;;5074040;28;19947;-60
2021/11/21 07:03:37;;;;;;;;;;;18.30;72.00;;;;;;5055982;28;19960;-60
2021/11/21 07:06:04;;;;;;;;;;;18.30;72.00;;;;;;5073714;28;19970;-60
2021/11/21 07:08:31;;;;;;;;;;;18.40;72.10;;;;;;5073948;28;19924;-60
2021/11/21 07:10:58;;;;;;;;;;;18.40;72.10;;;;;;5073815;28;19932;-61
2021/11/21 07:13:25;;;;;;;;;;;18.40;72.10;;;;;;5073367;28;19924;-60
2021/11/21 07:15:52;;;;;;;;;;;18.40;72.10;;;;;;5073896;28;19950;-59
2021/11/21 07:18:19;;;;;;;;;;;18.40;72.10;;;;;;5073901;28;19997;-59
2021/11/21 07:20:46;;;;;;;;;;;18.40;72.00;;;;;;5056143;28;20264;-60
2021/11/21 07:23:19;;;;;;;;;;;18.40;72.00;;;;;;5073284;28;19929;-59
2021/11/21 07:25:46;;;;;;;;;;;18.40;72.00;;;;;;5073531;28;19924;-61
2021/11/21 07:28:13;;;;;;;;;;;18.40;72.00;;;;;;5072579;28;20006;-61
2021/11/21 07:30:40;;;;;;;;;;;18.40;72.00;;;;;;5075272;28;19976;-59
2021/11/21 07:33:07;;;;;;;;;;;18.40;72.00;;;;;;5077422;28;19925;-61
2021/11/21 07:35:34;;;;;;;;;;;18.40;71.90;;;;;;5077410;28;20011;-59
2021/11/21 07:38:01;;;;;;;;;;;18.40;72.00;;;;;;5077408;28;19928;-60
2021/11/21 07:40:28;;;;;;;;;;;18.40;71.90;;;;;;5077365;28;19924;-60
2021/11/21 07:42:55;;;;;;;;;;;18.40;71.90;;;;;;5076243;28;19928;-59
2021/11/21 07:45:22;;;;;;;;;;;18.40;71.90;;;;;;5077566;28;20334;-60
2021/11/21 07:47:49;;;;;;;;;;;18.40;71.90;;;;;;5077191;28;19958;-60
2021/11/21 07:50:16;;;;;;;;;;;18.40;71.90;;;;;;5077119;28;19974;-61
2021/11/21 07:52:43;;;;;;;;;;;18.40;71.80;;;;;;5076931;28;19954;-60
2021/11/21 07:55:11;;;;;;;;;;;18.40;71.80;;;;;;5077714;28;19930;-60
2021/11/21 07:57:38;;;;;;;;;;;18.40;71.80;;;;;;5075866;28;20433;-59
2021/11/21 08:00:07;;;;;;;;;;;18.40;71.80;;;;;;5077256;28;19928;-61
2021/11/21 08:02:34;;;;;;;;;;;18.40;71.80;;;;;;5076904;28;19931;-60
2021/11/21 08:05:01;;;;;;;;;;;18.40;71.80;;;;;;5076805;28;19955;-60
2021/11/21 08:07:30;;;;;;;;;;;18.40;71.70;;;;;;5059638;28;19928;-60
2021/11/21 08:09:58;;;;;;;;;;;18.40;71.70;;;;;;5059355;28;20083;-60
2021/11/21 08:12:24;;;;;;;;;;;18.40;71.70;;;;;;5075739;28;19963;-60
2021/11/21 08:14:52;;;;;;;;;;;18.50;71.80;;;;;;5076595;28;19973;-61
2021/11/21 08:17:19;;;;;;;;;;;18.40;71.70;;;;;;5076621;28;19924;-59
2021/11/21 08:19:46;;;;;;;;;;;18.50;71.70;;;;;;5076568;28;19932;-59
2021/11/21 08:22:13;;;;;;;;;;;18.50;71.70;;;;;;5058867;28;19924;-61
2021/11/21 08:24:40;;;;;;;;;;;18.50;71.70;;;;;;5076412;28;19928;-60
2021/11/21 08:27:07;;;;;;;;;;;18.50;71.70;;;;;;5075576;28;19928;-61
2021/11/21 08:29:34;;;;;;;;;;;18.50;71.70;;;;;;5076719;28;19932;-61
2021/11/21 08:32:01;;;;;;;;;;;18.40;71.50;;;;;;5076702;28;19931;-59
2021/11/21 08:34:29;;;;;;;;;;;18.40;71.50;;;;;;5059058;28;20307;-61
2021/11/21 08:36:57;;;;;;;;;;;18.40;71.50;;;;;;5058934;28;20269;-60
2021/11/21 08:39:24;;;;;;;;;;;18.50;71.60;;;;;;5058568;28;19924;-61
2021/11/21 08:41:52;;;;;;;;;;;18.50;71.50;;;;;;5075252;28;19925;-60
2021/11/21 08:44:19;;;;;;;;;;;18.50;71.50;;;;;;5076168;28;20443;-60
2021/11/21 08:46:46;;;;;;;;;;;18.50;71.50;;;;;;5076436;28;19924;-61
2021/11/21 08:49:13;;;;;;;;;;;18.50;71.50;;;;;;5076069;28;19924;-59
2021/11/21 08:51:42;;;;;;;;;;;18.50;71.40;;;;;;5076026;28;20372;-60
2021/11/21 08:54:10;;;;;;;;;;;18.50;71.40;;;;;;5076049;28;19928;-60
2021/11/21 08:56:37;;;;;;;;;;;18.50;71.40;;;;;;5075741;28;19931;-60
2021/11/21 08:59:05;;;;;;;;;;;18.50;71.30;;;;;;5075363;28;19931;-60
2021/11/21 09:01:32;;;;;;;;;;;18.50;71.20;;;;;;5076169;28;19948;-58
2021/11/21 09:03:59;;;;;;;;;;;18.50;71.20;;;;;;5075789;28;19924;-60
2021/11/21 09:06:26;;;;;;;;;;;18.50;71.20;;;;;;5076045;28;19924;-58
2021/11/21 09:08:53;;;;;;;;;;;18.50;71.10;;;;;;5075997;28;19970;-60
2021/11/21 09:11:20;;;;;;;;;;;18.60;71.20;;;;;;5075610;28;19931;-61
2021/11/21 09:13:47;;;;;;;;;;;18.60;71.10;;;;;;5057322;28;19928;-60
2021/11/21 09:16:14;;;;;;;;;;;18.60;71.10;;;;;;5075542;28;19978;-60
2021/11/21 09:18:41;;;;;;;;;;;18.60;71.10;;;;;;5075798;28;19924;-60
2021/11/21 09:21:09;;;;;;;;;;;18.60;71.00;;;;;;5076258;28;19931;-59
2021/11/21 09:23:37;;;;;;;;;;;18.60;71.00;;;;;;5075400;28;19924;-61
2021/11/21 09:26:05;;;;;;;;;;;18.60;71.00;;;;;;5075307;28;19924;-60
2021/11/21 09:28:32;;;;;;;;;;;18.60;71.00;;;;;;5056632;28;19928;-61
2021/11/21 09:31:00;;;;;;;;;;;18.60;71.00;;;;;;5075241;28;19983;-60
2021/11/21 09:33:28;;;;;;;;;;;18.60;71.00;;;;;;5075498;28;20398;-59
2021/11/21 09:35:55;;;;;;;;;;;18.60;70.90;;;;;;5057462;28;20375;-59
2021/11/21 09:38:24;;;;;;;;;;;18.60;70.90;;;;;;5075074;28;19924;-60
2021/11/21 09:40:51;;;;;;;;;;;18.60;70.90;;;;;;5075017;28;19925;-60
2021/11/21 09:43:19;;;;;;;;;;;18.60;70.90;;;;;;5073821;28;20379;-60
2021/11/21 09:45:46;;;;;;;;;;;18.60;70.80;;;;;;5074943;28;19951;-60
2021/11/21 09:48:13;;;;;;;;;;;18.70;70.90;;;;;;5074884;28;19924;-61
2021/11/21 09:50:41;;;;;;;;;;;18.70;70.90;;;;;;5074829;28;19924;-60
2021/11/21 09:53:09;;;;;;;;;;;18.70;70.90;;;;;;5074426;28;19970;-60
2021/11/21 09:55:37;;;;;;;;;;;18.60;70.80;;;;;;5074683;28;20384;-60
2021/11/21 09:58:04;;;;;;;;;;;18.70;70.80;;;;;;5073847;28;19955;-60
2021/11/21 10:00:32;;;;;;;;;;;18.70;70.80;;;;;;5074643;28;20439;-60
2021/11/21 10:03:04;;;;;;;;;;;18.70;70.80;;;;;;5075448;28;19932;-61
2021/11/21 10:05:32;;;;;;;;;;;18.70;70.70;;;;;;5074860;28;19966;-60
2021/11/21 10:08:02;;;;;;;;;;;18.70;70.70;;;;;;5074795;28;19990;-60
2021/11/21 10:10:33;;;;;;;;;;;18.70;70.70;;;;;;5074772;28;19933;-60
2021/11/21 10:13:00;;;;;;;;;;;18.70;70.70;;;;;;5073998;28;19978;-61
2021/11/21 10:15:27;;;;;;;;;;;18.70;70.60;;;;;;5074297;28;19928;-60
2021/11/21 10:17:55;;;;;;;;;;;18.70;70.60;;;;;;5074324;28;19931;-61
2021/11/21 10:20:23;;;;;;;;;;;18.70;70.60;;;;;;5074601;28;20325;-61
2021/11/21 10:22:52;;;;;;;;;;;18.70;70.60;;;;;;5056609;28;19929;-61
2021/11/21 10:25:31;;;;;;;;;;;18.70;70.50;;;;;;5074208;28;19932;-60
2021/11/21 10:28:18;;;;;;;;;;;18.70;70.50;;;;;;5074153;28;19931;-60
2021/11/21 10:31:03;;;;;;;;;;;18.70;70.50;;;;;;5056553;28;20429;-57
2021/11/21 10:33:34;;;;;;;;;;;18.70;70.50;;;;;;5074402;28;19974;-62
2021/11/21 10:36:06;;;;;;;;;;;18.80;70.50;;;;;;5074331;28;19991;-58
2021/11/21 10:38:33;;;;;;;;;;;18.80;70.50;;;;;;5074011;28;19925;-60
2021/11/21 10:41:04;;;;;;;;;;;18.70;70.40;;;;;;5073970;28;19928;-61
2021/11/21 10:43:31;;;;;;;;;;;18.70;70.40;;;;;;5073381;28;20015;-60
2021/11/21 10:45:58;;;;;;;;;;;18.80;70.40;;;;;;5074163;28;19924;-59
2021/11/21 10:48:26;;;;;;;;;;;18.80;70.40;;;;;;5073882;28;19924;-59
2021/11/21 10:50:53;;;;;;;;;;;18.70;70.30;;;;;;5074191;28;20338;-59
2021/11/21 10:53:21;;;;;;;;;;;18.80;70.40;;;;;;5055851;28;20014;-59
2021/11/21 10:56:07;;;;;;;;;;;18.80;70.30;;;;;;5073587;28;19931;-60
2021/11/21 10:58:46;;;;;;;;;;;18.80;70.30;;;;;;5072798;28;19932;-60
2021/11/21 11:01:25;;;;;;;;;;;18.80;70.30;;;;;;5074109;28;19967;-62
2021/11/21 11:04:06;;;;;;;;;;;18.80;70.20;;;;;;5073759;28;19977;-59
2021/11/21 11:06:33;;;;;;;;;;;18.80;70.20;;;;;;5073581;28;20007;-61
2021/11/21 11:09:33;;;;;;;;;;;18.90;70.20;;;;;;5073675;28;19936;-60
2021/11/21 11:12:00;;;;;;;;;;;18.90;70.20;;;;;;5012141;28;19968;-60
2021/11/21 11:14:28;;;;;;;;;;;18.80;70.00;;;;;;5011233;28;20019;-62
2021/11/21 11:16:55;;;;;;;;;;;18.80;69.90;;;;;;5011898;28;19933;-60
2021/11/21 11:19:24;;;;;;;;;;;18.90;70.00;;;;;;5011900;28;19930;-60
2021/11/21 11:21:51;;;;;;;;;;;18.90;69.90;;;;;;5011953;28;19992;-60
2021/11/21 11:24:20;;;;;;;;;;;18.90;69.90;;;;;;5011541;28;19957;-60
2021/11/21 11:26:48;;;;;;;;;;;18.90;70.00;;;;;;5011842;28;19933;-61
2021/11/21 11:29:17;;;;;;;;;;;18.90;70.00;;;;;;4994760;28;19926;-60
2021/11/21 11:31:44;;;;;;;;;;;18.90;70.00;;;;;;5011740;28;20014;-61
2021/11/21 11:34:31;;;;;;;;;;;18.80;69.90;;;;;;5011686;28;19976;-61
2021/11/21 11:36:58;;;;;;;;;;;18.80;69.90;;;;;;5011639;28;19926;-60
2021/11/21 11:39:38;;;;;;;;;;;18.90;70.00;;;;;;5011663;28;19975;-59
2021/11/21 11:42:40;;;;;;;;;;;18.90;70.10;;;;;;5011878;28;19926;-59
2021/11/21 11:45:08;;;;;;;;;;;18.90;70.10;;;;;;4981769;28;19930;-60
2021/11/21 11:47:37;;;;;;;;;;;18.80;70.00;;;;;;5011264;28;19925;-61
2021/11/21 11:50:07;;;;;;;;;;;18.80;70.00;;;;;;5031328;28;20388;-59
2021/11/21 11:52:55;;;;;;;;;;;18.80;70.10;;;;;;5031077;28;19933;-57
2021/11/21 11:55:24;;;;;;;;;;;18.80;70.20;;;;;;5031163;28;19948;-60
2021/11/21 11:57:52;;;;;;;;;;;18.80;70.30;;;;;;5031116;28;19929;-59
2021/11/21 12:00:28;;;;;;;;;;;18.80;70.30;;;;;;5029579;28;19925;-61
2021/11/21 12:02:57;;;;;;;;;;;18.80;70.40;;;;;;5031235;28;20383;-60
2021/11/21 12:05:28;;;;;;;;;;;18.80;70.40;;;;;;5031207;28;20113;-61
2021/11/21 12:08:11;;;;;;;;;;;18.80;70.40;;;;;;5031186;28;19983;-61
2021/11/21 12:10:50;;;;;;;;;;;18.80;70.40;;;;;;5031153;28;20408;-61
2021/11/21 12:13:26;;;;;;;;;;;18.80;70.40;;;;;;5031087;28;19932;-59
2021/11/21 12:15:55;;;;;;;;;;;18.80;70.30;;;;;;5029648;28;19925;-59
2021/11/21 12:18:42;;;;;;;;;;;18.80;70.30;;;;;;5038644;28;20342;-60
2021/11/21 12:21:09;;;;;;;;;;;18.80;70.30;;;;;;5056556;28;19931;-59
2021/11/21 12:23:43;;;;;;;;;;;18.80;70.30;;;;;;5038973;28;19925;-59
2021/11/21 12:26:20;;;;;;;;;;;18.80;70.30;;;;;;5038829;28;19935;-61
2021/11/21 12:28:56;;;;;;;;;;;18.80;70.30;;;;;;5056465;28;19925;-61
2021/11/21 12:31:27;;;;;;;;;;;18.80;70.30;;;;;;5072679;28;19932;-59
2021/11/21 12:34:14;;;;;;;;;;;18.80;70.30;;;;;;5058985;28;19924;-59
2021/11/21 12:37:00;;;;;;;;;;;18.80;70.30;;;;;;5076262;28;19924;-59
2021/11/21 12:39:31;;;;;;;;;;;18.80;70.30;;;;;;5076563;28;19925;-59
2021/11/21 12:42:04;;;;;;;;;;;18.80;70.40;;;;;;5076261;28;19974;-61
2021/11/21 12:44:33;;;;;;;;;;;18.80;70.30;;;;;;5075267;28;19924;-60
2021/11/21 12:47:01;;;;;;;;;;;18.70;70.20;;;;;;5076299;28;19928;-60
2021/11/21 12:49:28;;;;;;;;;;;18.80;70.30;;;;;;5058779;28;20276;-61
2021/11/21 12:52:02;;;;;;;;;;;18.80;70.30;;;;;;5058335;28;20379;-60
2021/11/21 12:54:30;;;;;;;;;;;18.70;70.20;;;;;;5075625;28;19928;-60
2021/11/21 12:56:58;;;;;;;;;;;18.70;70.20;;;;;;5075818;28;20429;-61
2021/11/21 12:59:43;;;;;;;;;;;18.70;70.20;;;;;;5058219;28;19928;-60
2021/11/21 13:02:14;;;;;;;;;;;18.80;70.40;;;;;;5076114;28;19934;-61
2021/11/21 13:04:57;;;;;;;;;;;18.70;70.30;;;;;;5075726;28;19925;-60
2021/11/21 13:07:35;;;;;;;;;;;18.70;70.30;;;;;;5075744;28;19931;-57
2021/11/21 13:10:04;;;;;;;;;;;18.70;70.30;;;;;;5058305;28;20277;-59
2021/11/21 13:12:34;;;;;;;;;;;18.70;70.30;;;;;;5075607;28;19932;-60
2021/11/21 13:15:03;;;;;;;;;;;18.70;70.30;;;;;;5075088;28;19928;-60
2021/11/21 13:17:30;;;;;;;;;;;18.70;70.40;;;;;;5075559;28;19932;-61
2021/11/21 13:20:03;;;;;;;;;;;18.70;70.40;;;;;;5075784;28;20291;-61
2021/11/21 13:22:48;;;;;;;;;;;18.70;70.40;;;;;;5075202;28;19929;-59
2021/11/21 13:25:31;;;;;;;;;;;18.70;70.40;;;;;;5075372;28;19924;-60
2021/11/21 13:28:16;;;;;;;;;;;18.70;70.40;;;;;;5075212;28;19978;-61
2021/11/21 13:30:44;;;;;;;;;;;18.70;70.40;;;;;;5074407;28;19925;-60
2021/11/21 13:33:17;;;;;;;;;;;18.70;70.50;;;;;;5075455;28;20350;-60
2021/11/21 13:35:45;;;;;;;;;;;18.70;70.40;;;;;;5057745;28;19931;-60
2021/11/21 13:38:12;;;;;;;;;;;18.70;70.40;;;;;;5075125;28;19932;-60
2021/11/21 13:40:39;;;;;;;;;;;18.70;70.40;;;;;;5075057;28;19925;-59
2021/11/21 13:43:07;;;;;;;;;;;18.70;70.40;;;;;;5075073;28;19925;-60
2021/11/21 13:45:34;;;;;;;;;;;18.70;70.40;;;;;;5074004;28;19928;-61
2021/11/21 13:48:01;;;;;;;;;;;18.70;70.40;;;;;;5074927;28;19924;-59
2021/11/21 13:50:30;;;;;;;;;;;18.70;70.40;;;;;;5074888;28;19977;-59
2021/11/21 13:52:58;;;;;;;;;;;18.70;70.50;;;;;;5057173;28;19925;-60
2021/11/21 13:55:26;;;;;;;;;;;18.70;70.50;;;;;;5074999;28;20261;-59
2021/11/21 13:57:56;;;;;;;;;;;18.70;70.50;;;;;;5074601;28;20398;-60
2021/11/21 14:00:27;;;;;;;;;;;18.70;70.50;;;;;;5074342;28;19991;-59
2021/11/21 14:02:57;;;;;;;;;;;18.70;70.50;;;;;;5074678;28;19928;-61
2021/11/21 14:05:26;;;;;;;;;;;18.70;70.50;;;;;;5074860;28;19930;-61
2021/11/21 14:08:03;;;;;;;;;;;18.70;70.50;;;;;;5074559;28;19977;-61
2021/11/21 14:10:32;;;;;;;;;;;18.60;70.50;;;;;;5074788;28;19929;-60
2021/11/21 14:13:11;;;;;;;;;;;18.70;70.60;;;;;;5074794;28;20394;-61
2021/11/21 14:15:39;;;;;;;;;;;18.60;70.50;;;;;;5074399;28;19925;-61
2021/11/21 14:18:06;;;;;;;;;;;18.60;70.50;;;;;;5074685;28;20003;-58
2021/11/21 14:20:41;;;;;;;;;;;18.60;70.50;;;;;;5056998;28;20335;-61
2021/11/21 14:23:09;;;;;;;;;;;18.60;70.50;;;;;;5074324;28;19931;-60
2021/11/21 14:25:37;;;;;;;;;;;18.60;70.60;;;;;;5074245;28;19925;-61
2021/11/21 14:28:06;;;;;;;;;;;18.70;70.60;;;;;;5074194;28;19929;-60